createdAt,value
2019-05-06T00:00:00.950Z,5.70
2019-05-06T00:02:29.394Z,5.80
2019-05-06T00:04:57.777Z,5.80
2019-05-06T00:07:26.242Z,5.80
2019-05-06T00:09:54.715Z,5.70
2019-05-06T00:12:23.967Z,5.60
2019-05-06T00:14:54.170Z,5.60
2019-05-06T00:17:23.972Z,5.50
2019-05-06T00:19:53.920Z,5.30
2019-05-06T00:22:23.755Z,5.30
2019-05-06T00:25:05.235Z,5.30
2019-05-06T00:27:50.826Z,5.30
2019-05-06T00:30:19.254Z,5.30
2019-05-06T00:32:47.651Z,5.30
2019-05-06T00:35:16.055Z,5.20
2019-05-06T00:37:44.462Z,5.20
2019-05-06T00:40:17.554Z,5.20
2019-05-06T00:42:50.792Z,5.20
2019-05-06T00:45:19.182Z,5.30
2019-05-06T00:47:47.583Z,5.30
2019-05-06T00:50:16.150Z,5.40
2019-05-06T00:52:44.787Z,5.30
2019-05-06T00:55:13.779Z,5.20
2019-05-06T00:57:45.158Z,5.10
2019-05-06T01:00:15.072Z,5.00
2019-05-06T01:02:43.954Z,5.00
2019-05-06T01:05:13.999Z,4.90
2019-05-06T01:07:44.000Z,5.00
2019-05-06T01:10:14.419Z,5.00
2019-05-06T01:12:44.679Z,5.00
2019-05-06T01:15:21.174Z,5.00
2019-05-06T01:17:49.608Z,5.00
2019-05-06T01:20:18.119Z,5.00
2019-05-06T01:22:46.532Z,5.00
2019-05-06T01:25:15.483Z,5.00
2019-05-06T01:27:44.403Z,4.90
2019-05-06T01:30:13.851Z,4.70
2019-05-06T01:32:43.634Z,4.60
2019-05-06T01:35:13.981Z,4.70
2019-05-06T01:37:44.250Z,4.70
2019-05-06T01:40:17.334Z,4.80
2019-05-06T01:42:47.370Z,4.80
2019-05-06T01:45:16.210Z,4.80
2019-05-06T01:47:44.618Z,4.90
2019-05-06T01:50:14.048Z,4.80
2019-05-06T01:52:44.212Z,4.90
2019-05-06T01:55:14.169Z,4.90
2019-05-06T01:57:44.450Z,5.00
2019-05-06T02:00:14.077Z,5.00
2019-05-06T02:02:43.904Z,5.00
2019-05-06T02:05:13.794Z,4.90
2019-05-06T02:07:44.109Z,5.00
2019-05-06T02:10:14.161Z,5.00
2019-05-06T02:12:44.352Z,5.00
2019-05-06T02:15:14.576Z,4.90
2019-05-06T02:17:44.122Z,4.90
2019-05-06T02:20:13.802Z,4.90
2019-05-06T02:22:44.335Z,5.00
2019-05-06T02:25:14.485Z,5.10
2019-05-06T02:27:44.498Z,5.20
2019-05-06T02:30:16.232Z,5.30
2019-05-06T02:32:46.275Z,5.40
2019-05-06T02:35:26.088Z,5.40
2019-05-06T02:37:54.962Z,5.40
2019-05-06T02:40:25.934Z,5.40
2019-05-06T02:42:55.329Z,5.50
2019-05-06T02:45:24.372Z,5.60
2019-05-06T02:48:04.459Z,5.60
2019-05-06T02:50:42.702Z,5.50
2019-05-06T02:53:13.178Z,5.40
2019-05-06T02:55:43.058Z,5.40
2019-05-06T02:58:10.974Z,5.30
2019-05-06T03:00:39.380Z,5.40
2019-05-06T03:03:07.775Z,5.40
2019-05-06T03:05:36.178Z,5.30
2019-05-06T03:08:04.650Z,5.30
2019-05-06T03:10:33.153Z,5.30
2019-05-06T03:13:02.998Z,5.20
2019-05-06T03:15:33.559Z,5.20
2019-05-06T03:18:03.153Z,5.10
2019-05-06T03:20:56.705Z,5.10
2019-05-06T03:23:26.884Z,5.00
2019-05-06T03:25:55.278Z,5.00
2019-05-06T03:28:23.751Z,5.00
2019-05-06T03:30:56.524Z,5.00
2019-05-06T03:33:47.845Z,5.00
2019-05-06T03:36:06.334Z,5.00
2019-05-06T03:38:23.004Z,5.00
2019-05-06T03:40:53.737Z,4.90
2019-05-06T03:43:23.258Z,4.90
2019-05-06T03:46:05.390Z,5.00
2019-05-06T03:48:44.255Z,5.00
2019-05-06T03:51:13.543Z,4.90
2019-05-06T03:53:43.295Z,5.00
2019-05-06T03:56:16.824Z,4.90
2019-05-06T03:58:43.859Z,4.80
2019-05-06T04:01:13.313Z,4.90
2019-05-06T04:03:47.450Z,4.90
2019-05-06T04:06:13.808Z,4.90
2019-05-06T04:08:43.786Z,5.00
2019-05-06T04:11:15.309Z,5.00
2019-05-06T04:13:45.119Z,5.10
2019-05-06T04:16:15.246Z,5.20
2019-05-06T04:18:48.359Z,5.30
2019-05-06T04:21:23.953Z,5.30
2019-05-06T04:24:04.094Z,5.20
2019-05-06T04:26:46.056Z,5.30
2019-05-06T04:29:13.036Z,5.30
2019-05-06T04:31:43.516Z,5.40
2019-05-06T04:34:18.061Z,5.50
2019-05-06T04:36:44.025Z,5.50
2019-05-06T04:39:13.474Z,5.50
2019-05-06T04:41:43.395Z,5.50
2019-05-06T04:44:13.959Z,5.50
2019-05-06T04:46:44.340Z,5.70
2019-05-06T04:49:15.020Z,5.80
2019-05-06T04:51:43.076Z,5.80
2019-05-06T04:54:13.430Z,5.80
2019-05-06T04:56:43.807Z,5.80
2019-05-06T04:59:13.932Z,5.90
2019-05-06T05:01:45.382Z,5.90
2019-05-06T05:04:24.433Z,6.00
2019-05-06T05:06:43.306Z,6.10
2019-05-06T05:09:16.994Z,6.00
2019-05-06T05:11:44.683Z,6.00
2019-05-06T05:14:25.021Z,6.10
2019-05-06T05:16:58.064Z,6.20
2019-05-06T05:19:27.675Z,6.30
2019-05-06T05:21:57.714Z,6.10
2019-05-06T05:24:26.187Z,6.20
2019-05-06T05:26:54.591Z,6.20
2019-05-06T05:29:22.998Z,6.40
2019-05-06T05:31:53.007Z,6.50
2019-05-06T05:34:22.473Z,6.60
2019-05-06T05:36:52.082Z,6.60
2019-05-06T05:39:22.263Z,6.70
2019-05-06T05:41:52.146Z,6.70
2019-05-06T05:44:22.749Z,6.80
2019-05-06T05:46:52.375Z,6.80
2019-05-06T05:49:34.909Z,6.90
2019-05-06T05:52:03.634Z,7.00
2019-05-06T05:54:33.200Z,7.00
2019-05-06T05:57:02.408Z,7.10
2019-05-06T05:59:32.933Z,7.20
2019-05-06T06:02:03.791Z,7.20
2019-05-06T06:04:32.180Z,7.20
2019-05-06T06:07:02.746Z,7.30
2019-05-06T06:09:33.248Z,7.20
2019-05-06T06:12:02.982Z,7.30
2019-05-06T06:14:43.794Z,7.40
2019-05-06T06:17:23.353Z,7.40
2019-05-06T06:19:53.461Z,7.30
2019-05-06T06:22:24.374Z,7.10
2019-05-06T06:24:52.943Z,6.90
2019-05-06T06:27:22.362Z,7.10
2019-05-06T06:29:52.779Z,7.10
2019-05-06T06:32:23.414Z,6.80
2019-05-06T06:35:07.379Z,6.70
2019-05-06T06:37:25.223Z,6.90
2019-05-06T06:39:54.689Z,7.00
2019-05-06T06:42:23.287Z,7.10
2019-05-06T06:44:52.175Z,7.20
2019-05-06T06:47:22.493Z,7.30
2019-05-06T06:49:53.315Z,7.40
2019-05-06T06:52:23.179Z,7.30
2019-05-06T06:54:52.671Z,7.40
2019-05-06T06:57:42.378Z,7.30
2019-05-06T07:00:18.451Z,7.30
2019-05-06T07:03:04.365Z,7.50
2019-05-06T07:05:43.506Z,7.80
2019-05-06T07:08:12.689Z,7.90
2019-05-06T07:10:43.951Z,8.10
2019-05-06T07:13:13.590Z,8.20
2019-05-06T07:15:42.742Z,8.30
2019-05-06T07:18:13.488Z,8.20
2019-05-06T07:20:52.555Z,8.20
2019-05-06T07:23:25.057Z,8.50
2019-05-06T07:25:54.190Z,8.60
2019-05-06T07:28:24.411Z,8.80
2019-05-06T07:30:53.675Z,9.00
2019-05-06T07:33:22.937Z,9.10
2019-05-06T07:35:53.042Z,9.30
2019-05-06T07:38:23.088Z,9.40
2019-05-06T07:41:05.720Z,9.70
2019-05-06T07:43:38.430Z,10.00
2019-05-06T07:48:36.619Z,10.90
2019-05-06T07:51:05.023Z,10.70
2019-05-06T07:53:33.427Z,11.30
2019-05-06T07:56:03.644Z,11.40
2019-05-06T07:58:32.314Z,11.70
2019-05-06T08:01:02.717Z,11.50
2019-05-06T08:03:32.987Z,11.60
2019-05-06T08:06:02.654Z,11.80
2019-05-06T08:08:33.655Z,12.20
2019-05-06T08:11:02.739Z,12.80
2019-05-06T08:13:32.320Z,13.00
2019-05-06T08:16:02.215Z,13.20
2019-05-06T08:18:32.950Z,13.30
2019-05-06T08:21:02.638Z,13.50
2019-05-06T08:23:38.690Z,13.80
2019-05-06T08:26:12.127Z,13.70
2019-05-06T08:28:41.441Z,13.10
2019-05-06T08:31:07.808Z,13.90
2019-05-06T08:36:11.382Z,17.50
2019-05-06T08:38:54.106Z,21.00
2019-05-06T08:41:22.837Z,19.80
2019-05-06T08:43:52.838Z,17.80
2019-05-06T08:46:23.524Z,19.40
2019-05-06T08:48:52.668Z,22.90
2019-05-06T08:54:09.363Z,25.80
2019-05-06T08:56:38.160Z,23.50
2019-05-06T09:01:39.198Z,22.00
2019-05-06T09:04:12.405Z,20.10
2019-05-06T09:06:38.085Z,19.40
2019-05-06T09:09:07.944Z,18.00
2019-05-06T09:11:36.591Z,16.80
2019-05-06T09:14:05.131Z,15.40
2019-05-06T09:16:33.695Z,13.40
2019-05-06T09:19:04.330Z,13.00
2019-05-06T09:21:33.588Z,12.70
2019-05-06T09:26:44.343Z,12.50
2019-05-06T09:29:14.625Z,12.90
2019-05-06T09:36:52.659Z,18.80
2019-05-06T09:39:19.820Z,23.30
2019-05-06T09:41:49.333Z,27.30
2019-05-06T09:44:18.063Z,27.90
2019-05-06T09:46:46.488Z,27.30
2019-05-06T09:49:19.735Z,29.40
2019-05-06T09:54:23.365Z,21.10
2019-05-06T09:57:09.052Z,20.70
2019-05-06T09:59:37.458Z,19.90
2019-05-06T10:02:06.266Z,19.80
2019-05-06T10:04:34.679Z,20.00
2019-05-06T10:07:03.086Z,25.40
2019-05-06T10:09:32.640Z,27.60
2019-05-06T10:14:32.175Z,25.10
2019-05-06T10:17:04.387Z,27.00
2019-05-06T10:19:32.104Z,27.60
2019-05-06T10:22:00.622Z,26.90
2019-05-06T10:24:29.070Z,24.00
2019-05-06T10:26:58.837Z,23.40
2019-05-06T10:29:38.267Z,22.20
2019-05-06T10:32:08.311Z,20.70
2019-05-06T10:34:36.819Z,24.20
2019-05-06T10:37:33.643Z,27.00
2019-05-06T10:40:07.770Z,26.30
2019-05-06T10:42:39.314Z,26.00
2019-05-06T10:45:16.418Z,28.50
2019-05-06T10:47:45.198Z,26.50
2019-05-06T10:50:13.827Z,24.60
2019-05-06T10:53:02.240Z,20.60
2019-05-06T10:55:32.309Z,19.70
2019-05-06T10:58:02.390Z,18.70
2019-05-06T11:00:30.296Z,21.70
2019-05-06T11:03:14.482Z,23.60
2019-05-06T11:05:39.735Z,23.20
2019-05-06T11:08:08.187Z,22.10
2019-05-06T11:10:41.211Z,21.20
2019-05-06T11:13:06.967Z,21.60
2019-05-06T11:15:35.430Z,21.20
2019-05-06T11:18:04.908Z,21.50
2019-05-06T11:20:33.706Z,21.30
2019-05-06T11:23:02.299Z,20.60
2019-05-06T11:25:32.325Z,19.30
2019-05-06T11:28:02.748Z,17.70
2019-05-06T11:30:38.355Z,17.20
2019-05-06T11:33:25.521Z,17.00
2019-05-06T11:35:58.298Z,16.30
2019-05-06T11:38:26.698Z,16.30
2019-05-06T11:40:55.099Z,16.90
2019-05-06T11:43:23.514Z,17.70
2019-05-06T11:45:52.230Z,17.70
2019-05-06T11:48:22.217Z,17.90
2019-05-06T11:50:52.515Z,17.80
2019-05-06T11:53:22.939Z,17.50
2019-05-06T11:55:54.469Z,17.10
2019-05-06T11:58:39.150Z,16.70
2019-05-06T12:01:16.973Z,16.00
2019-05-06T12:03:45.455Z,15.60
2019-05-06T12:06:13.857Z,15.40
2019-05-06T12:08:43.182Z,15.30
2019-05-06T12:11:12.544Z,14.90
2019-05-06T12:13:42.524Z,14.60
2019-05-06T12:16:14.134Z,14.20
2019-05-06T12:18:42.265Z,13.50
2019-05-06T12:21:14.628Z,13.40
2019-05-06T12:23:44.234Z,13.10
2019-05-06T12:26:13.228Z,13.00
2019-05-06T12:28:43.421Z,12.90
2019-05-06T12:31:12.637Z,12.80
2019-05-06T12:33:43.267Z,12.80
2019-05-06T12:36:14.847Z,12.80
2019-05-06T12:39:06.372Z,13.20
2019-05-06T12:41:33.537Z,13.70
2019-05-06T12:44:03.162Z,14.20
2019-05-06T12:46:39.820Z,14.30
2019-05-06T12:49:08.223Z,14.80
2019-05-06T12:51:36.642Z,14.90
2019-05-06T12:54:05.213Z,14.70
2019-05-06T12:56:33.616Z,14.20
2019-05-06T12:59:02.319Z,13.80
2019-05-06T13:01:33.481Z,13.80
2019-05-06T13:04:04.126Z,13.60
2019-05-06T13:06:33.452Z,13.40
2019-05-06T13:09:05.003Z,13.30
2019-05-06T13:11:31.964Z,13.40
2019-05-06T13:16:30.333Z,13.20
2019-05-06T13:18:59.409Z,13.00
2019-05-06T13:21:27.814Z,12.60
2019-05-06T13:23:57.866Z,12.60
2019-05-06T13:26:26.278Z,12.60
2019-05-06T13:28:59.057Z,12.50
2019-05-06T13:31:27.473Z,12.30
2019-05-06T13:36:25.777Z,12.10
2019-05-06T13:39:09.594Z,12.20
2019-05-06T13:41:24.580Z,12.30
2019-05-06T13:44:02.556Z,12.30
2019-05-06T13:46:33.393Z,12.60
2019-05-06T13:49:03.717Z,12.80
2019-05-06T13:51:33.765Z,13.30
2019-05-06T13:54:02.673Z,14.10
2019-05-06T13:56:33.071Z,13.80
2019-05-06T13:59:01.392Z,14.10
2019-05-06T14:04:14.385Z,15.00
2019-05-06T14:06:43.353Z,14.90
2019-05-06T14:09:28.009Z,14.90
2019-05-06T14:11:42.180Z,14.90
2019-05-06T14:14:12.597Z,14.80
2019-05-06T14:16:42.684Z,14.60
2019-05-06T14:19:12.991Z,14.80
2019-05-06T14:21:43.201Z,14.80
2019-05-06T14:24:13.287Z,15.00
2019-05-06T14:26:58.503Z,15.30
2019-05-06T14:29:27.142Z,15.40
2019-05-06T14:31:57.316Z,15.00
2019-05-06T14:34:25.723Z,14.80
2019-05-06T14:36:54.128Z,14.30
2019-05-06T14:39:24.171Z,14.10
2019-05-06T14:41:54.291Z,14.00
2019-05-06T14:44:23.325Z,14.00
2019-05-06T14:47:02.107Z,14.40
2019-05-06T14:49:32.550Z,14.30
2019-05-06T14:52:02.741Z,14.30
2019-05-06T14:54:32.988Z,14.50
2019-05-06T14:57:02.675Z,14.60
2019-05-06T14:59:32.923Z,14.40
2019-05-06T15:02:02.643Z,14.80
2019-05-06T15:04:32.551Z,15.10
2019-05-06T15:07:02.156Z,14.90
2019-05-06T15:09:32.944Z,15.00
2019-05-06T15:12:02.379Z,14.90
2019-05-06T15:14:33.148Z,14.50
2019-05-06T15:17:02.269Z,14.40
2019-05-06T15:19:30.823Z,14.40
2019-05-06T15:21:59.230Z,14.10
2019-05-06T15:24:27.642Z,14.20
2019-05-06T15:26:56.047Z,14.20
2019-05-06T15:29:24.451Z,14.10
2019-05-06T15:31:54.495Z,13.90
2019-05-06T15:34:36.483Z,13.90
2019-05-06T15:37:09.096Z,14.00
2019-05-06T15:39:37.494Z,14.00
2019-05-06T15:42:05.899Z,13.80
2019-05-06T15:44:35.434Z,13.70
2019-05-06T15:47:03.986Z,13.80
2019-05-06T15:49:32.717Z,13.70
2019-05-06T15:52:03.551Z,13.70
2019-05-06T15:54:32.235Z,13.50
2019-05-06T15:57:00.818Z,13.40
2019-05-06T15:59:33.065Z,13.50
2019-05-06T16:02:01.910Z,13.10
2019-05-06T16:04:32.492Z,13.20
2019-05-06T16:07:02.837Z,13.10
2019-05-06T16:09:32.528Z,12.90
2019-05-06T16:12:03.006Z,12.80
2019-05-06T16:14:34.096Z,12.90
2019-05-06T16:17:01.314Z,12.90
2019-05-06T16:19:29.714Z,12.70
2019-05-06T16:21:58.123Z,12.70
2019-05-06T16:24:28.166Z,12.60
2019-05-06T16:26:56.576Z,12.60
2019-05-06T16:29:37.052Z,12.50
2019-05-06T16:32:07.896Z,12.40
2019-05-06T16:34:36.364Z,12.40
2019-05-06T16:39:33.311Z,12.30
2019-05-06T16:42:03.536Z,12.10
2019-05-06T16:44:32.238Z,12.20
2019-05-06T16:47:02.793Z,12.10
2019-05-06T16:49:32.965Z,12.00
2019-05-06T16:52:02.580Z,11.90
2019-05-06T16:54:34.406Z,11.80
2019-05-06T16:57:06.552Z,11.80
2019-05-06T16:59:34.955Z,11.70
2019-05-06T17:02:05.093Z,11.60
2019-05-06T17:04:44.061Z,11.60
2019-05-06T17:07:12.473Z,11.60
2019-05-06T17:09:42.839Z,11.50
2019-05-06T17:12:12.821Z,11.40
2019-05-06T17:17:11.524Z,11.10
2019-05-06T17:19:42.200Z,11.10
2019-05-06T17:22:12.372Z,11.00
2019-05-06T17:24:42.191Z,10.90
2019-05-06T17:27:12.041Z,10.80
2019-05-06T17:29:51.495Z,10.70
2019-05-06T17:32:30.326Z,10.70
2019-05-06T17:35:02.413Z,10.70
2019-05-06T17:37:47.808Z,10.70
2019-05-06T17:40:22.956Z,10.60
2019-05-06T17:42:53.273Z,10.50
2019-05-06T17:45:43.092Z,10.40
2019-05-06T17:48:31.249Z,10.50
2019-05-06T17:51:10.473Z,10.50
2019-05-06T17:53:42.596Z,10.40
2019-05-06T17:56:12.586Z,10.40
2019-05-06T17:58:42.343Z,10.40
2019-05-06T18:01:12.715Z,10.40
2019-05-06T18:03:41.259Z,10.40
2019-05-06T18:06:13.928Z,10.30
2019-05-06T18:08:39.823Z,10.30
2019-05-06T18:11:08.224Z,10.20
2019-05-06T18:13:36.734Z,10.00
2019-05-06T18:16:05.150Z,10.00
2019-05-06T18:18:33.554Z,10.10
2019-05-06T18:21:02.611Z,10.10
2019-05-06T18:23:33.455Z,10.00
2019-05-06T18:26:03.152Z,10.00
2019-05-06T18:28:32.364Z,9.80
2019-05-06T18:31:03.113Z,9.60
2019-05-06T18:33:32.581Z,9.40
2019-05-06T18:36:02.556Z,9.50
2019-05-06T18:38:33.533Z,9.40
2019-05-06T18:41:02.032Z,9.30
2019-05-06T18:43:32.591Z,9.20
2019-05-06T18:46:02.725Z,9.20
2019-05-06T18:48:32.906Z,9.20
2019-05-06T18:51:03.031Z,9.20
2019-05-06T18:53:33.158Z,9.00
2019-05-06T18:56:03.032Z,9.00
2019-05-06T18:58:32.104Z,9.00
2019-05-06T19:01:00.554Z,9.10
2019-05-06T19:03:31.990Z,9.10
2019-05-06T19:06:02.316Z,9.00
2019-05-06T19:08:39.389Z,8.90
2019-05-06T19:11:11.786Z,9.00
2019-05-06T19:13:39.806Z,9.00
2019-05-06T19:16:08.225Z,8.90
2019-05-06T19:18:38.642Z,8.90
2019-05-06T19:21:06.923Z,8.90
2019-05-06T19:23:35.388Z,8.90
2019-05-06T19:26:03.783Z,8.90
2019-05-06T19:28:32.879Z,8.80
2019-05-06T19:31:03.248Z,8.80
2019-05-06T19:33:34.115Z,8.80
2019-05-06T19:36:03.100Z,8.80
2019-05-06T19:38:33.530Z,8.70
2019-05-06T19:41:02.470Z,8.80
2019-05-06T19:43:32.886Z,8.70
2019-05-06T19:46:02.590Z,8.80
2019-05-06T19:48:32.809Z,8.90
2019-05-06T19:51:03.034Z,8.80
2019-05-06T19:53:32.240Z,8.80
2019-05-06T19:56:02.780Z,8.80
2019-05-06T19:58:31.703Z,8.80
2019-05-06T20:01:02.333Z,8.80
2019-05-06T20:03:32.746Z,8.80
2019-05-06T20:06:05.438Z,8.80
2019-05-06T20:08:42.225Z,8.70
2019-05-06T20:11:15.188Z,8.80
2019-05-06T20:13:43.578Z,8.90
2019-05-06T20:16:12.486Z,8.80
2019-05-06T20:18:42.599Z,8.80
2019-05-06T20:21:11.187Z,8.80
2019-05-06T20:23:39.595Z,8.80
2019-05-06T20:26:07.991Z,8.60
2019-05-06T20:28:36.406Z,8.70
2019-05-06T20:31:04.882Z,8.70
2019-05-06T20:33:33.286Z,8.60
2019-05-06T20:36:01.708Z,8.50
2019-05-06T20:38:30.107Z,8.40
2019-05-06T20:40:58.510Z,8.40
2019-05-06T20:43:26.942Z,8.50
2019-05-06T20:45:55.334Z,8.50
2019-05-06T20:48:23.746Z,8.50
2019-05-06T20:50:52.414Z,8.40
2019-05-06T20:53:22.619Z,8.40
2019-05-06T20:55:53.033Z,8.30
2019-05-06T20:58:22.978Z,8.40
2019-05-06T21:00:52.136Z,8.40
2019-05-06T21:03:22.131Z,8.50
2019-05-06T21:05:50.936Z,8.50
2019-05-06T21:08:19.339Z,8.60
2019-05-06T21:10:49.628Z,8.50
2019-05-06T21:13:29.549Z,8.60
2019-05-06T21:15:48.091Z,8.60
2019-05-06T21:18:16.493Z,8.70
2019-05-06T21:20:44.903Z,8.60
2019-05-06T21:23:13.556Z,8.60
2019-05-06T21:25:43.077Z,8.70
2019-05-06T21:28:12.229Z,8.70
2019-05-06T21:30:42.790Z,8.80
2019-05-06T21:33:12.419Z,8.60
2019-05-06T21:35:42.325Z,8.10
2019-05-06T21:38:12.105Z,8.20
2019-05-06T21:40:43.167Z,8.00
2019-05-06T21:43:13.047Z,8.00
2019-05-06T21:45:42.404Z,7.90
2019-05-06T21:48:13.389Z,7.90
2019-05-06T21:50:42.684Z,7.70
2019-05-06T21:53:14.294Z,7.80
2019-05-06T21:55:41.370Z,7.70
2019-05-06T21:58:09.786Z,7.60
2019-05-06T22:00:43.406Z,7.60
2019-05-06T22:03:13.389Z,7.70
2019-05-06T22:05:42.080Z,7.80
2019-05-06T22:08:12.664Z,7.80
2019-05-06T22:10:42.108Z,7.90
2019-05-06T22:13:14.285Z,7.90
2019-05-06T22:15:42.127Z,7.90
2019-05-06T22:18:12.533Z,7.90
2019-05-06T22:20:48.288Z,7.90
2019-05-06T22:23:16.694Z,7.90
2019-05-06T22:25:45.099Z,7.80
2019-05-06T22:28:13.506Z,7.80
2019-05-06T22:30:42.559Z,7.70
2019-05-06T22:33:12.582Z,7.70
2019-05-06T22:35:42.938Z,7.70
2019-05-06T22:38:12.361Z,7.70
2019-05-06T22:40:42.503Z,7.80
2019-05-06T22:43:12.324Z,7.80
2019-05-06T22:45:42.564Z,7.80
2019-05-06T22:48:12.102Z,7.80
2019-05-06T22:50:42.450Z,7.90
2019-05-06T22:53:12.938Z,7.90
2019-05-06T22:55:42.833Z,7.90
2019-05-06T22:58:11.968Z,8.00
2019-05-06T23:00:42.590Z,8.00
2019-05-06T23:03:15.149Z,8.00
2019-05-06T23:05:43.554Z,8.00
2019-05-06T23:08:12.350Z,8.00
2019-05-06T23:10:42.270Z,8.00
2019-05-06T23:13:12.457Z,8.00
2019-05-06T23:15:42.079Z,8.00
2019-05-06T23:18:10.657Z,8.00
2019-05-06T23:20:39.090Z,7.90
2019-05-06T23:23:07.520Z,8.00
2019-05-06T23:25:35.926Z,8.00
2019-05-06T23:28:04.779Z,8.00
2019-05-06T23:30:33.539Z,7.80
2019-05-06T23:33:02.078Z,7.90
2019-05-06T23:35:30.491Z,7.90
2019-05-06T23:38:35.221Z,8.00
2019-05-06T23:41:42.170Z,8.00
2019-05-06T23:44:46.455Z,8.00
2019-05-06T23:47:53.014Z,8.00
2019-05-06T23:50:57.461Z,8.10
2019-05-06T23:54:03.151Z,7.90
2019-05-06T23:56:45.322Z,7.90
2019-05-06T23:59:16.330Z,8.00
